Time;durP1;ratioP1;P1;durP2;ratioP2;P2;SDS_P1;SDS_P2;PMS_P1;PMS_P2;Temp;Humidity;BMP_temperature;BMP_pressure;BME280_temperature;BME280_humidity;BME280_pressure;Samples;Min_cycle;Max_cycle;Signal;HPM_P1;HPM_P2
2023/03/06 00:01:06;;;;;;;1.75;1.20;;;;;;;19.95;43.70;95896.06;10456899;28;20145;-49
2023/03/06 00:06:25;;;;;;;1.80;1.02;;;;;;;19.94;43.69;95894.53;10457168;28;20053;-49
2023/03/06 00:11:45;;;;;;;2.58;1.00;;;;;;;19.93;43.68;95901.03;10456775;28;20049;-50
2023/03/06 00:17:04;;;;;;;1.20;0.90;;;;;;;19.90;43.82;95902.53;10456667;28;20079;-50
2023/03/06 00:22:24;;;;;;;1.90;1.00;;;;;;;19.89;43.72;95906.34;10456652;28;20053;-50
2023/03/06 00:27:44;;;;;;;1.23;0.70;;;;;;;19.86;43.61;95904.38;10456496;28;20057;-51
2023/03/06 00:33:03;;;;;;;1.20;0.65;;;;;;;19.84;43.68;95900.44;10446721;28;20057;-51
2023/03/06 00:38:26;;;;;;;2.20;1.33;;;;;;;19.84;43.62;95900.44;10464934;28;20114;-49
2023/03/06 00:43:45;;;;;;;1.20;0.70;;;;;;;19.83;43.56;95888.06;10464618;28;20061;-50
2023/03/06 00:49:05;;;;;;;1.52;0.80;;;;;;;19.79;43.60;95882.56;10464301;28;20075;-49
2023/03/06 00:54:24;;;;;;;1.63;1.00;;;;;;;19.78;43.64;95878.28;10464133;28;20404;-51
2023/03/06 00:59:44;;;;;;;1.08;0.80;;;;;;;19.76;43.48;95875.16;10463945;28;20056;-49
2023/03/06 01:05:07;;;;;;;1.80;0.88;;;;;;;19.74;43.41;95885.53;10463820;28;20060;-49
2023/03/06 01:10:27;;;;;;;2.10;0.80;;;;;;;19.73;43.49;95873.13;10463214;28;20059;-49
2023/03/06 01:15:46;;;;;;;2.42;0.85;;;;;;;19.70;43.54;95863.78;10476474;28;20047;-47
2023/03/06 01:21:07;;;;;;;1.25;0.70;;;;;;;19.69;43.46;95861.41;10462838;28;20394;-48
2023/03/06 01:26:27;;;;;;;1.17;0.70;;;;;;;19.68;43.46;95849.84;10462358;28;20056;-50
2023/03/06 01:31:46;;;;;;;1.42;0.80;;;;;;;19.65;43.46;95847.81;10462702;28;20056;-51
2023/03/06 01:37:05;;;;;;;1.25;0.88;;;;;;;19.63;43.47;95841.97;10462401;28;20053;-50
2023/03/06 01:42:25;;;;;;;1.15;0.77;;;;;;;19.62;43.48;95845.81;10446700;28;20481;-52
2023/03/06 01:47:44;;;;;;;1.10;0.80;;;;;;;19.60;43.37;95829.19;10462003;28;20063;-48
2023/03/06 01:53:04;;;;;;;0.90;0.60;;;;;;;19.59;43.32;95832.22;10461546;28;20052;-50
2023/03/06 01:58:24;;;;;;;1.30;0.77;;;;;;;19.56;43.41;95820.97;10474926;28;20045;-49
2023/03/06 02:03:46;;;;;;;1.02;0.70;;;;;;;19.56;43.38;95830.97;10459687;28;20049;-48
2023/03/06 02:09:05;;;;;;;1.15;0.70;;;;;;;19.53;43.27;95820.88;10446682;28;20050;-50
2023/03/06 02:14:25;;;;;;;1.08;0.70;;;;;;;19.51;43.40;95813.13;10461116;28;20052;-49
2023/03/06 02:19:58;;;;;;;1.25;0.80;;;;;;;19.49;43.18;95803.81;10474498;28;20037;-49
2023/03/06 02:25:41;;;;;;;1.08;0.70;;;;;;;19.48;43.31;95803.03;10460781;28;20049;-48
2023/03/06 02:31:01;;;;;;;0.93;0.70;;;;;;;19.46;43.29;95799.88;10431600;28;20063;-50
2023/03/06 02:36:21;;;;;;;1.10;0.73;;;;;;;19.44;43.21;95804.81;10460103;28;20083;-48
2023/03/06 02:41:41;;;;;;;0.70;0.70;;;;;;;19.43;43.27;95795.16;10460355;28;20057;-48
2023/03/06 02:47:01;;;;;;;1.20;0.60;;;;;;;19.42;43.22;95795.50;10445080;28;20382;-49
2023/03/06 02:52:20;;;;;;;1.42;0.82;;;;;;;19.38;43.17;95790.00;10458957;28;20060;-49
2023/03/06 02:57:40;;;;;;;0.68;0.68;;;;;;;19.38;43.17;95787.31;10472809;28;20049;-49
2023/03/06 03:03:02;;;;;;;1.48;0.80;;;;;;;19.36;43.23;95789.59;10457438;28;20098;-50
2023/03/06 03:08:23;;;;;;;0.80;0.70;;;;;;;19.34;43.21;95781.81;10472304;28;20401;-47
2023/03/06 03:13:46;;;;;;;1.38;0.77;;;;;;;19.32;43.12;95772.50;10443509;28;20103;-49
2023/03/06 03:19:11;;;;;;;1.85;0.80;;;;;;;19.31;43.07;95773.66;10443777;28;20071;-49
2023/03/06 03:24:31;;;;;;;0.82;0.63;;;;;;;19.29;43.03;95762.41;10471762;28;20048;-47
2023/03/06 03:29:56;;;;;;;1.20;0.70;;;;;;;19.27;43.03;95753.88;10442381;28;20064;-48
2023/03/06 03:35:15;;;;;;;0.82;0.70;;;;;;;19.26;43.21;95757.69;10457915;28;20045;-50
2023/03/06 03:40:37;;;;;;;0.75;0.65;;;;;;;19.23;43.01;95751.09;10442762;28;20049;-49
2023/03/06 03:45:57;;;;;;;1.33;0.68;;;;;;;19.22;43.19;95736.00;10442568;28;20045;-49
2023/03/06 03:51:18;;;;;;;1.05;0.80;;;;;;;19.20;43.18;95743.66;10442002;28;20056;-50
2023/03/06 03:56:43;;;;;;;0.63;0.63;;;;;;;19.20;43.14;95732.88;10442155;28;20463;-50
2023/03/06 04:02:09;;;;;;;1.10;0.70;;;;;;;19.17;43.14;95722.78;10441754;28;20049;-48
2023/03/06 04:07:36;;;;;;;0.80;0.60;;;;;;;19.16;43.10;95724.66;10469214;28;20041;-50
2023/03/06 04:12:56;;;;;;;1.35;0.52;;;;;;;19.15;42.98;95719.59;10456674;28;20045;-50
2023/03/06 04:18:17;;;;;;;1.00;0.55;;;;;;;19.12;43.05;95721.09;10441676;28;20060;-50
2023/03/06 04:23:38;;;;;;;0.52;0.45;;;;;;;19.11;43.11;95716.03;10440703;28;20597;-48
2023/03/06 04:28:58;;;;;;;0.75;0.68;;;;;;;19.10;42.96;95706.38;10440484;28;20057;-48
2023/03/06 04:34:18;;;;;;;0.68;0.60;;;;;;;19.07;42.94;95707.88;10441014;28;20104;-49
2023/03/06 04:39:39;;;;;;;1.08;0.70;;;;;;;19.07;42.98;95710.56;10440519;28;20057;-48
2023/03/06 04:44:58;;;;;;;0.73;0.60;;;;;;;19.04;43.02;95708.56;10469262;28;20547;-50
2023/03/06 04:50:18;;;;;;;1.52;0.50;;;;;;;19.03;42.94;95701.56;10455718;28;20056;-48
2023/03/06 04:55:38;;;;;;;0.65;0.63;;;;;;;19.01;42.93;95692.25;10455726;28;20060;-50
2023/03/06 05:00:57;;;;;;;0.82;0.60;;;;;;;19.00;42.93;95685.31;10455975;28;20076;-49
2023/03/06 05:06:16;;;;;;;0.88;0.60;;;;;;;18.98;42.97;95688.34;10456022;28;20045;-49
2023/03/06 05:11:36;;;;;;;1.08;0.88;;;;;;;18.98;42.76;95682.19;10455505;28;20057;-50
2023/03/06 05:16:55;;;;;;;0.70;0.70;;;;;;;18.97;42.83;95684.06;10456922;28;20049;-50
2023/03/06 05:22:15;;;;;;;2.83;0.75;;;;;;;18.95;42.82;95679.03;10463322;28;20045;-49
2023/03/06 05:27:35;;;;;;;2.33;0.82;;;;;;;18.94;42.86;95682.88;10462880;28;20060;-50
2023/03/06 05:32:54;;;;;;;0.65;0.65;;;;;;;18.92;43.14;95668.94;10462550;28;20053;-49
2023/03/06 05:38:14;;;;;;;0.73;0.70;;;;;;;18.93;43.13;95681.31;10462347;28;20064;-51
2023/03/06 05:43:34;;;;;;;1.40;0.60;;;;;;;18.94;43.25;95679.38;10462475;28;20114;-48
2023/03/06 05:48:54;;;;;;;0.82;0.70;;;;;;;18.94;43.26;95677.47;10461525;28;20413;-50
2023/03/06 05:54:13;;;;;;;0.80;0.75;;;;;;;18.94;43.37;95677.47;10461949;28;20053;-50
2023/03/06 05:59:32;;;;;;;0.50;0.50;;;;;;;18.94;43.11;95674.75;10461587;28;20053;-49
2023/03/06 06:04:52;;;;;;;0.95;0.68;;;;;;;18.96;43.16;95677.13;10461534;28;20107;-50
2023/03/06 06:10:12;;;;;;;0.73;0.60;;;;;;;18.96;42.98;95677.13;10461363;28;20063;-48
2023/03/06 06:15:31;;;;;;;0.60;0.60;;;;;;;18.98;43.06;95676.78;10445468;28;20493;-49
2023/03/06 06:20:51;;;;;;;0.90;0.73;;;;;;;18.98;42.95;95677.56;10474209;28;20045;-49
2023/03/06 06:26:10;;;;;;;1.05;0.80;;;;;;;19.02;42.99;95678.44;10461114;28;20111;-51
2023/03/06 06:31:30;;;;;;;0.70;0.70;;;;;;;19.04;43.00;95678.09;10472879;28;20037;-47
2023/03/06 06:36:50;;;;;;;0.95;0.63;;;;;;;19.06;42.93;95676.59;10460248;28;20053;-48
2023/03/06 06:42:10;;;;;;;0.75;0.75;;;;;;;19.08;42.87;95679.72;10460269;28;20057;-49
2023/03/06 06:47:30;;;;;;;0.60;0.60;;;;;;;19.09;42.90;95670.50;10473027;28;20037;-50
2023/03/06 06:52:49;;;;;;;0.77;0.73;;;;;;;19.12;42.84;95663.63;10459087;28;20061;-47
2023/03/06 06:58:08;;;;;;;0.98;0.70;;;;;;;19.15;42.96;95662.91;10459452;28;20053;-49
2023/03/06 07:03:28;;;;;;;0.85;0.70;;;;;;;19.19;42.86;95660.31;10472675;28;20041;-48
2023/03/06 07:08:47;;;;;;;1.40;0.80;;;;;;;19.21;42.77;95652.63;10472514;28;20405;-50
2023/03/06 07:14:07;;;;;;;0.80;0.60;;;;;;;19.25;42.96;95653.50;10458917;28;20107;-48
2023/03/06 07:19:27;;;;;;;0.90;0.70;;;;;;;19.28;42.71;95659.00;10458675;28;20076;-49
2023/03/06 07:24:47;;;;;;;0.90;0.68;;;;;;;19.32;42.71;95664.47;10458630;28;20052;-47
2023/03/06 07:30:07;;;;;;;0.98;0.70;;;;;;;19.35;42.89;95661.09;10458087;28;20057;-46
2023/03/06 07:35:27;;;;;;;1.77;0.70;;;;;;;19.38;42.73;95659.59;10457683;28;20052;-49
2023/03/06 07:40:49;;;;;;;1.30;0.80;;;;;;;19.41;42.73;95662.41;10457183;28;20519;-49
2023/03/06 07:46:10;;;;;;;0.70;0.70;;;;;;;19.44;42.70;95667.06;10470960;28;20049;-49
2023/03/06 07:51:29;;;;;;;1.40;0.65;;;;;;;19.48;42.60;95657.16;10456901;28;20069;-50
2023/03/06 07:56:50;;;;;;;0.55;0.52;;;;;;;19.53;42.49;95653.41;10457051;28;20065;-50
2023/03/06 08:02:11;;;;;;;2.25;0.80;;;;;;;19.56;42.59;95661.59;10457133;28;20045;-50
2023/03/06 08:07:30;;;;;;;0.90;0.70;;;;;;;19.60;42.75;95656.28;10457192;28;20052;-50
2023/03/06 08:12:49;;;;;;;1.27;0.70;;;;;;;19.63;42.52;95660.97;10456518;28;20045;-47
2023/03/06 08:18:09;;;;;;;0.70;0.70;;;;;;;19.66;42.60;95654.06;10456649;28;20409;-49
2023/03/06 08:23:29;;;;;;;1.77;0.75;;;;;;;19.70;42.70;95657.66;10456391;28;20057;-51
2023/03/06 08:28:50;;;;;;;0.95;0.60;;;;;;;19.74;42.69;95658.53;10456245;28;20052;-49
2023/03/06 08:34:13;;;;;;;0.70;0.70;;;;;;;19.78;42.44;95662.09;10456376;28;20049;-52
2023/03/06 08:39:32;;;;;;;1.30;0.80;;;;;;;19.81;42.60;95650.56;10469581;28;20075;-50
2023/03/06 08:44:52;;;;;;;3.17;0.70;;;;;;;19.84;42.72;95647.16;10456097;28;20045;-47
2023/03/06 08:50:11;;;;;;;2.15;0.70;;;;;;;19.88;42.44;95649.97;10464557;28;20558;-49
2023/03/06 08:55:30;;;;;;;2.15;0.70;;;;;;;19.91;42.32;95649.22;10476699;28;20045;-50
2023/03/06 09:00:50;;;;;;;1.27;0.65;;;;;;;19.95;42.61;95648.19;10464171;28;20076;-48
2023/03/06 09:06:10;;;;;;;1.95;0.75;;;;;;;19.98;42.63;95648.63;10463666;28;20053;-50
2023/03/06 09:11:30;;;;;;;1.52;0.80;;;;;;;20.01;42.69;95650.59;10463084;28;20504;-48
2023/03/06 09:16:49;;;;;;;1.17;0.63;;;;;;;20.05;42.63;95654.16;10476927;28;20420;-47
2023/03/06 09:22:08;;;;;;;1.05;0.80;;;;;;;20.07;42.78;95649.97;10463601;28;20108;-47
2023/03/06 09:27:28;;;;;;;1.10;0.70;;;;;;;20.10;42.70;95646.53;10463255;28;20057;-47
2023/03/06 09:32:47;;;;;;;0.82;0.80;;;;;;;20.13;42.59;95653.16;10462764;28;20060;-49
2023/03/06 09:38:06;;;;;;;0.60;0.60;;;;;;;20.18;42.61;95650.19;10462821;28;20079;-48
2023/03/06 09:43:31;;;;;;;3.70;1.65;;;;;;;20.21;41.95;95648.66;10475554;28;20041;-48
2023/03/06 09:48:56;;;;;;;2.75;1.15;;;;;;;20.23;42.36;95647.19;10461935;28;20049;-49
2023/03/06 09:54:16;;;;;;;1.48;1.15;;;;;;;20.27;42.37;95641.88;10461812;28;20049;-49
2023/03/06 09:59:46;;;;;;;1.35;1.00;;;;;;;20.29;42.30;95645.78;10475299;28;20041;-49
2023/03/06 10:05:09;;;;;;;2.75;1.08;;;;;;;20.33;42.55;95635.81;10473466;28;20493;-50
2023/03/06 10:10:41;;;;;;;1.60;1.00;;;;;;;20.37;42.57;95637.81;10474768;28;20045;-50
2023/03/06 10:16:23;;;;;;;1.50;1.20;;;;;;;20.39;42.61;95635.53;10446088;28;20060;-50
2023/03/06 10:21:55;;;;;;;1.30;0.80;;;;;;;20.42;42.92;95629.38;10460891;28;20424;-48
2023/03/06 10:27:49;;;;;;;1.95;0.75;;;;;;;20.47;42.94;95629.09;10459107;28;20041;-50
2023/03/06 10:33:31;;;;;;;1.05;0.80;;;;;;;20.49;43.08;95621.41;10460587;28;20061;-49
2023/03/06 10:38:50;;;;;;;1.70;0.90;;;;;;;20.51;43.18;95628.00;10460252;28;20048;-49
2023/03/06 10:44:10;;;;;;;1.45;0.80;;;;;;;20.55;43.15;95625.38;10460581;28;20045;-49
2023/03/06 10:49:33;;;;;;;0.88;0.82;;;;;;;20.57;43.24;95625.81;10459323;28;20069;-49
2023/03/06 10:55:16;;;;;;;1.13;0.80;;;;;;;20.60;43.14;95621.63;10459859;28;20045;-47
2023/03/06 11:00:36;;;;;;;0.75;0.75;;;;;;;20.62;43.14;95616.63;10444735;28;20049;-49
2023/03/06 11:06:10;;;;;;;1.50;0.70;;;;;;;20.64;42.88;95612.44;10472279;28;20493;-46
2023/03/06 11:11:29;;;;;;;3.60;1.00;;;;;;;20.66;42.55;95604.75;10458068;28;20103;-49
2023/03/06 11:16:54;;;;;;;2.05;0.82;;;;;;;20.66;42.42;95593.91;10458392;28;20049;-49
2023/03/06 11:22:17;;;;;;;2.13;0.88;;;;;;;20.68;42.56;95591.63;10457841;28;20201;-49
2023/03/06 11:27:41;;;;;;;1.83;0.98;;;;;;;20.69;42.67;95576.16;10471470;28;20048;-50
2023/03/06 11:33:07;;;;;;;1.40;1.00;;;;;;;20.71;42.71;95587.41;10458219;28;20048;-47
2023/03/06 11:38:43;;;;;;;0.90;0.80;;;;;;;20.69;42.92;95574.25;10456286;28;20045;-48
2023/03/06 11:44:15;;;;;;;5.07;1.50;;;;;;;20.71;42.66;95558.41;10457660;28;20045;-48
2023/03/06 11:50:01;;;;;;;34.95;5.75;;;;;;;20.71;43.13;95550.31;10441708;28;20066;-48
2023/03/06 11:55:33;;;;;;;8.48;2.30;;;;;;;20.72;43.92;95543.75;10425817;28;20110;-49
2023/03/06 12:01:05;;;;;;;7.88;2.30;;;;;;;20.73;44.80;95536.41;10457090;28;20056;-48
2023/03/06 12:06:42;;;;;;;6.28;2.38;;;;;;;20.74;45.47;95530.66;10456532;28;20076;-49
2023/03/06 12:12:22;;;;;;;4.45;2.30;;;;;;;20.74;46.13;95530.66;10456792;28;20413;-56
2023/03/06 12:17:47;;;;;;;5.97;2.17;;;;;;;20.76;46.44;95532.19;10418881;28;20052;-50
2023/03/06 12:23:19;;;;;;;4.85;3.95;;;;;;;20.18;29.45;95514.97;10456702;28;20049;-50
2023/03/06 12:28:54;;;;;;;4.53;2.28;;;;;;;20.28;37.37;95510.91;10455798;28;20413;-49
2023/03/06 12:34:41;;;;;;;6.78;2.83;;;;;;;20.41;35.41;95512.28;10440888;28;20059;-48
2023/03/06 12:40:15;;;;;;;3.03;1.85;;;;;;;20.43;37.25;95499.19;10456188;28;20056;-50
2023/03/06 12:45:36;;;;;;;7.53;2.50;;;;;;;20.47;37.89;95488.44;10441642;28;20052;-48
2023/03/06 12:50:55;;;;;;;7.97;2.38;;;;;;;20.49;38.40;95491.56;10462750;28;20049;-48
2023/03/06 12:56:17;;;;;;;9.43;2.38;;;;;;;20.50;38.62;95487.69;10455823;28;20130;-48
2023/03/06 13:02:07;;;;;;;6.80;2.25;;;;;;;20.51;38.77;95489.25;10440670;28;20049;-48
2023/03/06 13:07:51;;;;;;;7.63;2.35;;;;;;;20.49;39.06;95486.16;10455877;28;20048;-49
2023/03/06 13:13:32;;;;;;;7.70;2.33;;;;;;;20.48;39.27;95485.38;10468916;28;20492;-49
2023/03/06 13:18:56;;;;;;;5.72;2.22;;;;;;;20.48;39.60;95479.16;10455641;28;20076;-48
2023/03/06 13:24:26;;;;;;;4.82;2.28;;;;;;;20.48;39.77;95471.03;10453626;28;20451;-48
2023/03/06 13:29:48;;;;;;;6.55;2.50;;;;;;;20.46;39.95;95468.69;10455446;28;20052;-50
2023/03/06 13:35:28;;;;;;;5.10;2.20;;;;;;;20.44;40.04;95473.69;10455498;28;20049;-48
2023/03/06 13:40:48;;;;;;;6.30;2.30;;;;;;;20.44;40.26;95478.31;10456256;28;20049;-49
2023/03/06 13:46:24;;;;;;;5.05;2.35;;;;;;;20.43;40.30;95498.41;10462257;28;20053;-50
2023/03/06 13:51:50;;;;;;;9.00;2.10;;;;;;;20.41;40.44;95498.00;10461640;28;20068;-48
2023/03/06 13:57:49;;;;;;;3.50;1.90;;;;;;;20.40;40.52;95485.59;10462007;28;20049;-50
2023/03/06 14:03:30;;;;;;;2.80;1.83;;;;;;;20.38;40.53;95467.00;10461215;28;20076;-48
2023/03/06 14:08:50;;;;;;;4.07;2.17;;;;;;;20.37;40.78;95468.19;10461563;28;20053;-48
2023/03/06 14:14:11;;;;;;;4.35;2.20;;;;;;;20.36;40.76;95463.91;10460612;28;20528;-51
2023/03/06 14:19:35;;;;;;;6.40;1.92;;;;;;;20.34;40.79;95464.25;10474308;28;20049;-49
2023/03/06 14:25:13;;;;;;;5.20;2.08;;;;;;;20.33;40.95;95457.28;10459153;28;20049;-50
2023/03/06 14:30:33;;;;;;;5.80;1.75;;;;;;;20.32;40.90;95458.41;10460455;28;20053;-50
2023/03/06 14:35:53;;;;;;;4.00;1.98;;;;;;;20.31;40.93;95448.75;10473800;28;20079;-48
2023/03/06 14:41:22;;;;;;;3.22;2.05;;;;;;;20.30;40.96;95457.22;10473661;28;20095;-47
2023/03/06 14:46:43;;;;;;;5.35;2.05;;;;;;;20.28;41.03;95448.69;10445499;28;20052;-49
2023/03/06 14:52:03;;;;;;;3.40;1.48;;;;;;;20.28;41.12;95446.00;10458481;28;20064;-50
2023/03/06 14:57:23;;;;;;;3.53;1.67;;;;;;;20.27;41.06;95447.16;10460035;28;20087;-50
2023/03/06 15:02:43;;;;;;;3.05;1.67;;;;;;;20.25;41.14;95454.84;10472695;28;20056;-50
2023/03/06 15:08:06;;;;;;;4.75;1.70;;;;;;;20.24;41.09;95454.03;10457865;28;20041;-48
2023/03/06 15:13:27;;;;;;;2.05;1.45;;;;;;;20.23;41.21;95449.78;10472126;28;20041;-48
2023/03/06 15:18:56;;;;;;;2.63;1.45;;;;;;;20.21;41.35;95452.06;10457345;28;20049;-48
2023/03/06 15:24:35;;;;;;;2.45;1.40;;;;;;;20.19;41.33;95459.78;10458062;28;20053;-49
2023/03/06 15:30:20;;;;;;;5.55;1.42;;;;;;;20.18;41.60;95463.59;10457816;28;20513;-48
2023/03/06 15:35:51;;;;;;;2.60;1.40;;;;;;;20.17;41.29;95462.06;10457854;28;20049;-48
2023/03/06 15:41:22;;;;;;;2.67;1.50;;;;;;;20.15;41.39;95461.63;10457791;28;20122;-50
2023/03/06 15:46:42;;;;;;;2.70;1.70;;;;;;;20.14;41.41;95470.88;10442753;28;20048;-50
2023/03/06 15:52:01;;;;;;;3.60;1.52;;;;;;;20.11;41.46;95480.50;10461152;28;20053;-47
2023/03/06 15:57:23;;;;;;;2.75;1.55;;;;;;;20.08;41.42;95486.59;10470357;28;20090;-49
2023/03/06 16:02:42;;;;;;;2.70;2.00;;;;;;;20.07;41.33;95506.69;10457149;28;20103;-50
2023/03/06 16:08:03;;;;;;;2.60;1.55;;;;;;;20.06;41.34;95507.03;10441934;28;20049;-48
2023/03/06 16:13:27;;;;;;;1.95;1.20;;;;;;;20.05;41.58;95513.56;10456931;28;20065;-49
2023/03/06 16:18:47;;;;;;;1.80;1.27;;;;;;;20.04;41.29;95522.84;10456425;28;20421;-48
2023/03/06 16:24:07;;;;;;;3.58;1.80;;;;;;;20.04;41.15;95506.63;10441729;28;20063;-48
2023/03/06 16:29:27;;;;;;;2.88;1.48;;;;;;;20.04;41.28;95498.50;10456630;28;20060;-49
2023/03/06 16:34:46;;;;;;;2.10;1.50;;;;;;;20.05;41.34;95491.94;10456207;28;20053;-48
2023/03/06 16:40:21;;;;;;;1.92;1.20;;;;;;;20.04;41.46;95480.34;10469455;28;20504;-49
2023/03/06 16:45:42;;;;;;;2.03;1.25;;;;;;;20.05;41.51;95487.34;10455773;28;20497;-48
2023/03/06 16:51:01;;;;;;;2.35;1.50;;;;;;;20.06;41.46;95491.59;10440782;28;20064;-47
2023/03/06 16:56:20;;;;;;;2.50;1.30;;;;;;;20.06;41.52;95497.00;10455224;28;20045;-50
2023/03/06 17:01:43;;;;;;;2.60;2.08;;;;;;;20.07;40.33;95503.19;10455127;28;20053;-48
2023/03/06 17:07:03;;;;;;;1.50;1.40;;;;;;;20.10;40.82;95503.25;10455773;28;20386;-51
2023/03/06 17:12:23;;;;;;;1.50;1.13;;;;;;;20.12;41.12;95511.00;10456367;28;20420;-49
2023/03/06 17:17:43;;;;;;;7.15;2.00;;;;;;;20.14;41.41;95512.19;10476670;28;20092;-50
2023/03/06 17:23:03;;;;;;;5.57;2.78;;;;;;;20.17;42.35;95513.44;10476358;28;20045;-50
2023/03/06 17:28:23;;;;;;;7.72;4.07;;;;;;;20.21;43.48;95518.88;10463283;28;20103;-50
2023/03/06 17:33:42;;;;;;;7.57;4.60;;;;;;;20.24;44.99;95518.16;10462837;28;20072;-59
2023/03/06 17:39:03;;;;;;;7.03;3.50;;;;;;;20.25;44.21;95515.13;10462865;28;20053;-53
2023/03/06 17:44:24;;;;;;;4.10;3.08;;;;;;;20.27;44.37;95523.66;10462399;28;20057;-52
2023/03/06 17:49:43;;;;;;;3.95;2.47;;;;;;;20.29;44.66;95515.94;10461938;28;20041;-48
2023/03/06 17:55:04;;;;;;;3.42;2.33;;;;;;;20.31;44.25;95524.50;10461952;28;20065;-50
2023/03/06 18:00:24;;;;;;;4.82;2.40;;;;;;;20.32;44.02;95520.63;10461880;28;20064;-49
2023/03/06 18:05:43;;;;;;;4.50;2.08;;;;;;;20.34;44.21;95520.28;10460847;28;20492;-52
2023/03/06 18:11:05;;;;;;;5.82;2.67;;;;;;;20.38;44.17;95523.03;10475003;28;20043;-49
2023/03/06 18:16:25;;;;;;;5.47;2.00;;;;;;;20.41;44.35;95522.34;10460423;28;20505;-54
2023/03/06 18:21:46;;;;;;;3.15;1.88;;;;;;;20.42;44.37;95521.94;10461214;28;20398;-51
2023/03/06 18:27:05;;;;;;;2.80;1.60;;;;;;;20.44;44.15;95522.38;10459762;28;20053;-49
2023/03/06 18:32:24;;;;;;;3.30;1.73;;;;;;;20.45;44.28;95534.78;10460895;28;20049;-52
2023/03/06 18:37:44;;;;;;;2.13;1.42;;;;;;;20.46;44.29;95540.94;10460532;28;20061;-51
2023/03/06 18:43:04;;;;;;;2.30;1.40;;;;;;;20.47;44.31;95537.13;10460339;28;20053;-51
2023/03/06 18:48:23;;;;;;;3.63;1.30;;;;;;;20.48;44.00;95535.97;10473294;28;20037;-53
2023/03/06 18:53:43;;;;;;;2.75;1.23;;;;;;;20.47;44.01;95539.81;10459355;28;20516;-51
2023/03/06 18:59:04;;;;;;;2.97;1.33;;;;;;;20.47;44.20;95537.91;10459652;28;20053;-49
2023/03/06 19:04:25;;;;;;;4.13;1.25;;;;;;;20.48;44.04;95541.38;10472957;28;20049;-53
2023/03/06 19:09:47;;;;;;;2.97;1.50;;;;;;;20.48;44.08;95549.50;10459152;28;20057;-52
2023/03/06 19:15:07;;;;;;;3.90;1.60;;;;;;;20.47;44.10;95545.25;10459063;28;20049;-55
2023/03/06 19:20:27;;;;;;;4.93;1.30;;;;;;;20.48;44.02;95546.78;10458942;28;20103;-54
2023/03/06 19:25:57;;;;;;;3.70;1.27;;;;;;;20.46;44.14;95547.13;10458592;28;20081;-55
2023/03/06 19:31:23;;;;;;;2.50;1.20;;;;;;;20.45;43.98;95550.22;10458673;28;20049;-54
2023/03/06 19:36:43;;;;;;;1.48;1.05;;;;;;;20.45;43.98;95547.53;10457773;28;20077;-53
2023/03/06 19:42:03;;;;;;;2.13;1.30;;;;;;;20.44;43.93;95543.25;10457301;28;20486;-52
2023/03/06 19:47:22;;;;;;;2.00;1.17;;;;;;;20.45;43.96;95539.41;10442083;28;20053;-51
2023/03/06 19:52:42;;;;;;;2.40;1.42;;;;;;;20.42;43.98;95540.88;10456979;28;20052;-54
2023/03/06 19:58:02;;;;;;;2.70;1.10;;;;;;;20.43;43.86;95547.88;10457233;28;20103;-54
2023/03/06 20:03:21;;;;;;;1.75;1.25;;;;;;;20.42;43.93;95540.88;10457204;28;20053;-51
2023/03/06 20:08:41;;;;;;;3.75;1.33;;;;;;;20.42;43.86;95542.81;10457164;28;20063;-51
2023/03/06 20:14:02;;;;;;;1.95;1.17;;;;;;;20.42;43.96;95545.53;10457249;28;20052;-51
2023/03/06 20:19:21;;;;;;;2.38;1.40;;;;;;;20.42;44.17;95548.22;10469935;28;20052;-50
2023/03/06 20:24:41;;;;;;;4.65;1.30;;;;;;;20.41;44.20;95552.09;10456605;28;20053;-50
2023/03/06 20:30:00;;;;;;;2.25;1.20;;;;;;;20.42;44.25;95553.63;10469842;28;20037;-50
2023/03/06 20:35:21;;;;;;;2.00;1.25;;;;;;;20.42;44.41;95551.72;10456497;28;20123;-48
2023/03/06 20:40:40;;;;;;;4.35;1.35;;;;;;;20.43;44.40;95555.22;10456343;28;20053;-52
2023/03/06 20:46:02;;;;;;;2.70;1.45;;;;;;;20.45;44.65;95558.34;10455998;28;20060;-53
2023/03/06 20:51:24;;;;;;;2.10;1.20;;;;;;;20.45;44.41;95555.63;10463519;28;20060;-51
2023/03/06 20:56:46;;;;;;;3.55;1.42;;;;;;;20.47;44.34;95554.13;10464386;28;20056;-50
2023/03/06 21:02:08;;;;;;;2.47;1.20;;;;;;;20.47;44.41;95558.75;10464350;28;20052;-52
2023/03/06 21:07:28;;;;;;;3.60;1.17;;;;;;;20.49;44.58;95543.72;10448259;28;20509;-52
2023/03/06 21:12:48;;;;;;;3.30;1.48;;;;;;;20.50;44.39;95544.50;10448617;28;20049;-52
2023/03/06 21:18:08;;;;;;;1.52;1.27;;;;;;;20.51;44.46;95544.16;10462939;28;20057;-51
2023/03/06 21:23:28;;;;;;;2.80;1.27;;;;;;;20.53;44.38;95551.91;10463620;28;20056;-51
2023/03/06 21:28:48;;;;;;;3.28;1.40;;;;;;;20.53;44.31;95551.91;10476405;28;20045;-51
2023/03/06 21:34:09;;;;;;;1.70;1.00;;;;;;;20.53;44.31;95549.97;10462959;28;20049;-51
2023/03/06 21:39:29;;;;;;;1.83;1.35;;;;;;;20.53;44.17;95549.97;10462870;28;20102;-52
2023/03/06 21:44:48;;;;;;;2.80;1.42;;;;;;;20.53;44.19;95546.50;10462673;28;20053;-51
2023/03/06 21:50:09;;;;;;;4.07;1.63;;;;;;;20.54;44.10;95548.03;10461757;28;20512;-52
2023/03/06 21:55:29;;;;;;;2.72;1.40;;;;;;;20.53;44.28;95544.56;10461822;28;20061;-50
2023/03/06 22:00:48;;;;;;;3.90;1.25;;;;;;;20.52;44.12;95542.22;10461142;28;20060;-54
2023/03/06 22:06:08;;;;;;;2.75;1.30;;;;;;;20.52;44.29;95544.91;10461309;28;20045;-51
2023/03/06 22:11:30;;;;;;;3.20;1.30;;;;;;;20.52;44.17;95542.22;10474793;28;20400;-50
2023/03/06 22:16:49;;;;;;;1.92;1.15;;;;;;;20.50;44.43;95525.56;10461533;28;20401;-51
2023/03/06 22:22:09;;;;;;;3.00;1.40;;;;;;;20.50;44.34;95529.06;10461120;28;20098;-51
2023/03/06 22:27:28;;;;;;;2.50;1.15;;;;;;;20.48;44.50;95533.25;10460272;28;20082;-50
2023/03/06 22:32:48;;;;;;;2.92;1.38;;;;;;;20.48;44.39;95520.53;10460738;28;20068;-51
2023/03/06 22:38:07;;;;;;;2.55;1.40;;;;;;;20.46;44.51;95525.50;10445687;28;20114;-51
2023/03/06 22:43:26;;;;;;;5.03;1.40;;;;;;;20.45;44.53;95520.47;10473559;28;20103;-52
2023/03/06 22:48:46;;;;;;;2.08;1.23;;;;;;;20.43;44.47;95514.66;10460045;28;20412;-52
2023/03/06 22:54:06;;;;;;;2.28;1.17;;;;;;;20.43;44.39;95514.66;10459946;28;20053;-52
2023/03/06 22:59:26;;;;;;;3.08;1.30;;;;;;;20.42;44.49;95510.34;10473187;28;20044;-51
2023/03/06 23:04:51;;;;;;;3.00;1.33;;;;;;;20.42;44.58;95513.06;10459205;28;20052;-51
2023/03/06 23:10:10;;;;;;;2.85;1.40;;;;;;;20.40;44.24;95509.94;10457831;28;20061;-51
2023/03/06 23:15:49;;;;;;;3.00;1.15;;;;;;;20.38;44.38;95509.53;10458780;28;20071;-52
2023/03/06 23:21:27;;;;;;;2.53;1.20;;;;;;;20.38;44.46;95506.81;10472427;28;20052;-51
2023/03/06 23:27:05;;;;;;;3.53;1.65;;;;;;;20.35;44.31;95513.75;10458737;28;20284;-50
2023/03/06 23:32:25;;;;;;;1.63;1.10;;;;;;;20.34;44.41;95510.22;10471747;28;20452;-51
2023/03/06 23:37:44;;;;;;;3.60;1.40;;;;;;;20.34;44.44;95504.03;10458251;28;20061;-51
2023/03/06 23:43:04;;;;;;;1.60;1.00;;;;;;;20.31;44.29;95502.84;10442920;28;20068;-52
2023/03/06 23:48:25;;;;;;;3.08;1.17;;;;;;;20.30;44.46;95501.28;10442331;28;20607;-51
2023/03/06 23:53:46;;;;;;;4.90;1.40;;;;;;;20.28;44.44;95498.16;10470872;28;20098;-52
2023/03/06 23:59:05;;;;;;;2.97;1.27;;;;;;;20.27;44.21;95496.59;10457066;28;20493;-50
